createdAt,value
2023-03-10T00:00:04.671Z,43.58
2023-03-10T00:03:27.030Z,43.71
2023-03-10T00:06:49.098Z,43.69
2023-03-10T00:10:12.677Z,43.91
2023-03-10T00:13:34.988Z,43.83
2023-03-10T00:16:56.801Z,43.87
2023-03-10T00:20:18.678Z,43.91
2023-03-10T00:23:40.656Z,44.00
2023-03-10T00:27:02.453Z,44.11
2023-03-10T00:30:24.297Z,44.06
2023-03-10T00:33:46.853Z,44.18
2023-03-10T00:37:09.422Z,44.27
2023-03-10T00:40:31.267Z,44.18
2023-03-10T00:43:53.106Z,44.20
2023-03-10T00:47:14.929Z,44.09
2023-03-10T00:50:39.502Z,44.35
2023-03-10T00:54:02.774Z,44.34
2023-03-10T00:57:24.734Z,44.31
2023-03-10T01:00:46.523Z,44.53
2023-03-10T01:04:12.501Z,44.50
2023-03-10T01:07:34.292Z,44.44
2023-03-10T01:10:56.748Z,44.55
2023-03-10T01:14:19.153Z,44.50
2023-03-10T01:17:41.135Z,44.62
2023-03-10T01:21:03.507Z,44.76
2023-03-10T01:24:25.502Z,44.76
2023-03-10T01:27:47.316Z,44.57
2023-03-10T01:31:09.426Z,44.81
2023-03-10T01:34:31.248Z,44.96
2023-03-10T01:37:53.129Z,45.04
2023-03-10T01:41:16.182Z,45.03
2023-03-10T01:44:39.429Z,45.02
2023-03-10T01:48:01.484Z,45.19
2023-03-10T01:51:24.151Z,45.21
2023-03-10T01:54:49.922Z,45.18
2023-03-10T01:58:12.426Z,45.25
2023-03-10T02:01:35.033Z,45.22
2023-03-10T02:04:58.057Z,45.38
2023-03-10T02:08:20.912Z,45.34
2023-03-10T02:11:43.122Z,45.54
2023-03-10T02:15:05.503Z,45.61
2023-03-10T02:18:28.485Z,45.55
2023-03-10T02:22:17.251Z,45.52
2023-03-10T02:26:25.372Z,45.57
2023-03-10T02:29:59.578Z,45.95
2023-03-10T02:33:28.592Z,45.88
2023-03-10T02:36:51.241Z,46.04
2023-03-10T02:40:32.447Z,45.89
2023-03-10T02:43:56.868Z,45.98
2023-03-10T02:47:21.670Z,46.13
2023-03-10T02:50:47.720Z,46.15
2023-03-10T02:54:10.693Z,46.26
2023-03-10T02:57:33.291Z,46.16
2023-03-10T03:00:56.281Z,46.38
2023-03-10T03:04:18.298Z,46.40
2023-03-10T03:07:40.966Z,46.42
2023-03-10T03:11:02.785Z,46.45
2023-03-10T03:14:24.729Z,46.60
2023-03-10T03:17:47.498Z,46.64
2023-03-10T03:21:11.737Z,46.47
2023-03-10T03:24:33.844Z,46.46
2023-03-10T03:27:57.635Z,46.34
2023-03-10T03:31:22.197Z,46.56
2023-03-10T03:34:45.906Z,46.70
2023-03-10T03:38:08.740Z,46.54
2023-03-10T03:41:30.916Z,46.64
2023-03-10T03:44:53.504Z,46.72
2023-03-10T03:48:16.005Z,46.79
2023-03-10T03:51:38.460Z,46.82
2023-03-10T03:55:00.488Z,46.81
2023-03-10T03:58:22.502Z,46.77
2023-03-10T04:01:46.131Z,46.80
2023-03-10T04:05:11.188Z,46.98
2023-03-10T04:08:33.306Z,47.10
2023-03-10T04:11:55.564Z,46.95
2023-03-10T04:15:18.217Z,47.15
2023-03-10T04:18:40.003Z,47.11
2023-03-10T04:22:02.503Z,47.22
2023-03-10T04:25:25.367Z,47.11
2023-03-10T04:28:47.442Z,47.30
2023-03-10T04:32:11.098Z,47.12
2023-03-10T04:35:35.170Z,47.35
2023-03-10T04:38:58.534Z,47.38
2023-03-10T04:42:28.140Z,47.45
2023-03-10T04:45:52.200Z,47.31
2023-03-10T04:49:18.131Z,47.40
2023-03-10T04:52:41.680Z,47.52
2023-03-10T04:56:06.414Z,47.46
2023-03-10T04:59:28.687Z,47.51
2023-03-10T05:02:50.722Z,47.63
2023-03-10T05:06:20.912Z,47.53
2023-03-10T05:09:48.505Z,47.60
2023-03-10T05:13:14.110Z,47.74
2023-03-10T05:16:36.297Z,47.80
2023-03-10T05:19:58.529Z,47.99
2023-03-10T05:23:21.014Z,47.88
2023-03-10T05:26:43.109Z,47.90
2023-03-10T05:30:06.693Z,48.10
2023-03-10T05:33:31.312Z,47.97
2023-03-10T05:36:54.356Z,48.06
2023-03-10T05:40:20.392Z,48.40
2023-03-10T05:43:42.516Z,48.12
2023-03-10T05:47:06.190Z,48.08
2023-03-10T05:50:30.700Z,48.37
2023-03-10T05:53:53.226Z,48.18
2023-03-10T05:57:18.704Z,48.16
2023-03-10T06:00:40.829Z,48.42
2023-03-10T06:04:02.621Z,48.48
2023-03-10T06:07:27.354Z,48.43
2023-03-10T06:10:49.645Z,48.51
2023-03-10T06:14:11.520Z,48.46
2023-03-10T06:17:33.608Z,48.56
2023-03-10T06:20:55.694Z,48.69
2023-03-10T06:24:17.582Z,48.55
2023-03-10T06:27:41.668Z,48.69
2023-03-10T06:31:06.654Z,48.64
2023-03-10T06:34:28.509Z,48.76
2023-03-10T06:37:50.298Z,48.68
2023-03-10T06:41:12.586Z,48.65
2023-03-10T06:44:35.309Z,48.71
2023-03-10T06:47:57.026Z,48.76
2023-03-10T06:51:20.767Z,48.89
2023-03-10T06:54:42.544Z,48.84
2023-03-10T06:58:04.407Z,48.90
2023-03-10T07:01:33.397Z,48.86
2023-03-10T07:04:55.296Z,48.89
2023-03-10T07:08:17.064Z,48.83
2023-03-10T07:11:38.797Z,48.82
2023-03-10T07:15:00.633Z,48.84
2023-03-10T07:18:22.967Z,48.72
2023-03-10T07:21:45.472Z,48.82
2023-03-10T07:25:07.841Z,48.69
2023-03-10T07:28:31.425Z,48.75
2023-03-10T07:31:54.543Z,48.62
2023-03-10T07:35:16.420Z,48.76
2023-03-10T07:38:38.300Z,48.66
2023-03-10T07:42:00.124Z,48.60
2023-03-10T07:45:23.989Z,48.58
2023-03-10T07:48:45.781Z,48.64
2023-03-10T07:52:07.538Z,48.55
2023-03-10T07:55:29.366Z,48.32
2023-03-10T07:58:51.137Z,48.29
2023-03-10T08:02:14.555Z,48.14
2023-03-10T08:05:41.519Z,48.04
2023-03-10T08:09:03.597Z,47.86
2023-03-10T08:12:25.587Z,47.83
2023-03-10T08:15:47.417Z,47.65
2023-03-10T08:19:09.274Z,47.71
2023-03-10T08:22:31.045Z,47.74
2023-03-10T08:25:52.821Z,47.76
2023-03-10T08:29:18.294Z,47.91
2023-03-10T08:32:40.486Z,47.83
2023-03-10T08:36:17.035Z,47.85
2023-03-10T08:39:39.017Z,47.92
2023-03-10T08:43:00.996Z,48.08
2023-03-10T08:46:25.604Z,48.16
2023-03-10T08:49:50.729Z,48.26
2023-03-10T08:53:12.723Z,48.11
2023-03-10T08:56:36.002Z,48.31
2023-03-10T08:59:58.507Z,48.06
2023-03-10T09:03:20.819Z,47.88
2023-03-10T09:06:42.825Z,47.80
2023-03-10T09:10:05.974Z,47.60
2023-03-10T09:13:28.015Z,47.63
2023-03-10T09:16:49.870Z,47.40
2023-03-10T09:20:12.329Z,47.43
2023-03-10T09:23:34.388Z,47.34
2023-03-10T09:26:56.371Z,47.45
2023-03-10T09:30:18.212Z,47.50
2023-03-10T09:33:41.463Z,47.28
2023-03-10T09:37:03.721Z,47.34
2023-03-10T09:40:25.930Z,47.69
2023-03-10T09:43:54.384Z,47.70
2023-03-10T09:47:48.191Z,47.78
2023-03-10T09:51:22.912Z,50.73
2023-03-10T09:55:15.852Z,50.37
2023-03-10T09:59:16.497Z,50.71
2023-03-10T10:02:45.957Z,51.74
2023-03-10T10:06:07.551Z,52.44
2023-03-10T10:09:42.198Z,52.74
2023-03-10T10:13:16.186Z,53.35
2023-03-10T10:16:47.492Z,54.17
2023-03-10T10:20:21.666Z,54.65
2023-03-10T10:23:52.110Z,55.06
2023-03-10T10:27:18.332Z,55.55
2023-03-10T10:30:42.294Z,55.95
2023-03-10T10:34:07.295Z,56.05
2023-03-10T10:37:34.231Z,56.50
2023-03-10T10:41:05.756Z,56.67
2023-03-10T10:44:28.373Z,56.83
2023-03-10T10:51:29.739Z,57.18
2023-03-10T10:54:56.995Z,57.17
2023-03-10T10:58:32.556Z,57.30
2023-03-10T11:01:57.589Z,57.45
2023-03-10T11:05:23.084Z,57.33
2023-03-10T11:08:51.246Z,58.12
2023-03-10T11:12:50.346Z,57.62
2023-03-10T11:16:42.813Z,57.82
2023-03-10T11:20:14.956Z,57.59
2023-03-10T11:23:51.517Z,57.36
2023-03-10T11:27:38.933Z,57.55
2023-03-10T11:31:21.493Z,57.47
2023-03-10T11:34:51.912Z,57.29
2023-03-10T11:38:31.683Z,57.04
2023-03-10T11:42:26.108Z,57.00
2023-03-10T11:45:54.491Z,56.65
2023-03-10T11:49:20.691Z,56.71
2023-03-10T11:52:43.120Z,56.53
2023-03-10T11:56:07.424Z,56.72
2023-03-10T11:59:32.099Z,56.62
2023-03-10T12:02:56.712Z,56.47
2023-03-10T12:06:24.300Z,55.69
2023-03-10T12:09:54.372Z,54.54
2023-03-10T12:13:27.111Z,53.74
2023-03-10T12:16:49.325Z,53.16
2023-03-10T12:20:12.988Z,52.72
2023-03-10T12:23:44.167Z,52.61
2023-03-10T12:27:05.927Z,52.64
2023-03-10T12:30:45.675Z,52.43
2023-03-10T12:34:23.936Z,52.44
2023-03-10T12:37:46.111Z,52.44
2023-03-10T12:41:08.745Z,52.38
2023-03-10T12:44:33.653Z,52.37
2023-03-10T12:48:13.314Z,52.31
2023-03-10T12:51:47.393Z,52.24
2023-03-10T12:55:18.410Z,52.21
2023-03-10T12:59:03.454Z,52.11
2023-03-10T13:02:34.079Z,51.80
2023-03-10T13:06:03.321Z,51.76
2023-03-10T13:09:32.232Z,51.53
2023-03-10T13:13:02.009Z,51.42
2023-03-10T13:16:23.751Z,51.07
2023-03-10T13:20:00.297Z,50.79
2023-03-10T13:23:24.452Z,50.57
2023-03-10T13:26:46.303Z,50.38
2023-03-10T13:30:20.268Z,50.37
2023-03-10T13:33:52.954Z,50.35
2023-03-10T13:37:15.578Z,50.27
2023-03-10T13:40:41.813Z,50.19
2023-03-10T13:44:03.833Z,50.26
2023-03-10T13:47:27.359Z,50.36
2023-03-10T13:51:07.477Z,50.41
2023-03-10T13:54:31.676Z,50.71
2023-03-10T13:57:54.736Z,50.80
2023-03-10T14:01:35.381Z,50.93
2023-03-10T14:05:01.174Z,51.02
2023-03-10T14:08:28.852Z,51.07
2023-03-10T14:11:51.283Z,51.19
2023-03-10T14:15:19.265Z,51.18
2023-03-10T14:18:42.737Z,51.24
2023-03-10T14:22:21.662Z,51.21
2023-03-10T14:25:43.365Z,51.28
2023-03-10T14:29:20.789Z,51.16
2023-03-10T14:32:42.464Z,51.18
2023-03-10T14:36:10.996Z,51.22
2023-03-10T14:39:34.314Z,51.30
2023-03-10T14:42:59.872Z,51.22
2023-03-10T14:46:22.014Z,51.15
2023-03-10T14:49:44.275Z,51.02
2023-03-10T14:53:11.046Z,50.97
2023-03-10T14:56:33.524Z,50.85
2023-03-10T14:59:55.257Z,50.76
2023-03-10T15:03:17.494Z,50.71
2023-03-10T15:06:39.237Z,50.56
2023-03-10T15:10:12.147Z,50.61
2023-03-10T15:13:38.160Z,50.53
2023-03-10T15:17:00.595Z,50.57
2023-03-10T15:20:25.009Z,50.59
2023-03-10T15:23:47.132Z,50.70
2023-03-10T15:27:13.913Z,50.65
2023-03-10T15:30:36.783Z,50.75
2023-03-10T15:33:58.521Z,50.74
2023-03-10T15:37:20.388Z,50.91
2023-03-10T15:40:45.130Z,50.79
2023-03-10T15:44:07.936Z,50.80
2023-03-10T15:47:29.731Z,50.94
2023-03-10T15:50:51.490Z,51.00
2023-03-10T15:54:13.433Z,51.05
2023-03-10T15:57:35.171Z,51.06
2023-03-10T16:00:56.882Z,51.20
2023-03-10T16:04:19.372Z,51.37
2023-03-10T16:07:41.356Z,51.49
2023-03-10T16:11:06.150Z,51.67
2023-03-10T16:14:29.180Z,51.87
2023-03-10T16:17:53.720Z,51.99
2023-03-10T16:21:17.898Z,52.25
2023-03-10T16:24:40.403Z,52.55
2023-03-10T16:28:04.892Z,52.71
2023-03-10T16:31:27.700Z,52.94
2023-03-10T16:34:49.562Z,53.07
2023-03-10T16:38:11.399Z,53.33
2023-03-10T16:41:33.366Z,53.53
2023-03-10T16:44:56.628Z,53.56
2023-03-10T16:48:19.770Z,53.65
2023-03-10T16:51:43.826Z,53.74
2023-03-10T16:55:11.499Z,53.97
2023-03-10T16:58:34.057Z,53.97
2023-03-10T17:01:55.781Z,54.10
2023-03-10T17:05:17.667Z,54.50
2023-03-10T17:08:40.781Z,54.50
2023-03-10T17:12:02.917Z,54.65
2023-03-10T17:15:27.187Z,54.91
2023-03-10T17:18:49.304Z,54.88
2023-03-10T17:22:11.191Z,55.09
2023-03-10T17:29:17.446Z,55.31
2023-03-10T17:32:39.226Z,55.57
2023-03-10T17:36:09.494Z,55.60
2023-03-10T17:39:31.593Z,55.64
2023-03-10T17:42:56.627Z,55.72
2023-03-10T17:46:31.935Z,55.73
2023-03-10T17:49:57.030Z,55.81
2023-03-10T17:53:19.663Z,55.93
2023-03-10T17:56:41.456Z,55.95
2023-03-10T18:00:04.072Z,55.87
2023-03-10T18:03:38.037Z,56.14
2023-03-10T18:07:00.229Z,56.11
2023-03-10T18:10:23.548Z,56.46
2023-03-10T18:13:45.436Z,56.45
2023-03-10T18:17:12.485Z,56.55
2023-03-10T18:20:40.737Z,56.77
2023-03-10T18:24:03.090Z,56.81
2023-03-10T18:27:24.922Z,56.71
2023-03-10T18:30:49.248Z,56.69
2023-03-10T18:34:13.200Z,56.72
2023-03-10T18:37:35.040Z,56.78
2023-03-10T18:41:01.346Z,56.82
2023-03-10T18:44:23.256Z,56.73
2023-03-10T18:47:46.840Z,56.85
2023-03-10T18:51:10.314Z,56.83
2023-03-10T18:58:30.073Z,57.01
2023-03-10T19:01:52.413Z,56.70
2023-03-10T19:05:16.253Z,56.75
2023-03-10T19:08:44.566Z,56.64
2023-03-10T19:12:35.111Z,56.59
2023-03-10T19:15:57.291Z,56.55
2023-03-10T19:19:24.789Z,56.49
2023-03-10T19:26:39.992Z,56.59
2023-03-10T19:30:06.186Z,56.66
2023-03-10T19:33:28.060Z,56.73
2023-03-10T19:37:13.546Z,56.74
2023-03-10T19:40:43.510Z,56.80
2023-03-10T19:44:05.497Z,56.66
2023-03-10T19:47:30.630Z,56.79
2023-03-10T19:50:56.681Z,56.96
2023-03-10T19:54:20.768Z,56.91
2023-03-10T19:58:06.668Z,56.87
2023-03-10T20:01:28.988Z,57.03
2023-03-10T20:04:56.972Z,56.92
2023-03-10T20:08:19.090Z,57.20
2023-03-10T20:11:41.543Z,57.13
2023-03-10T20:15:05.037Z,57.16
2023-03-10T20:18:26.850Z,56.99
2023-03-10T20:21:50.652Z,57.04
2023-03-10T20:25:18.615Z,57.19
2023-03-10T20:28:40.694Z,56.92
2023-03-10T20:32:04.477Z,56.58
2023-03-10T20:35:28.159Z,56.07
2023-03-10T20:38:50.133Z,55.83
2023-03-10T20:42:12.843Z,55.57
2023-03-10T20:45:35.286Z,55.33
2023-03-10T20:48:57.036Z,54.93
2023-03-10T20:52:21.368Z,54.73
2023-03-10T20:55:43.159Z,54.68
2023-03-10T20:59:05.001Z,54.43
2023-03-10T21:02:29.207Z,54.25
2023-03-10T21:05:51.102Z,54.04
2023-03-10T21:09:13.219Z,53.85
2023-03-10T21:12:35.192Z,53.63
2023-03-10T21:15:59.378Z,53.57
2023-03-10T21:19:21.339Z,53.49
2023-03-10T21:22:43.300Z,53.41
2023-03-10T21:26:19.747Z,53.33
2023-03-10T21:29:42.599Z,53.18
2023-03-10T21:33:04.624Z,53.05
2023-03-10T21:36:26.571Z,53.10
2023-03-10T21:39:48.390Z,53.03
2023-03-10T21:43:13.211Z,52.90
2023-03-10T21:46:35.162Z,52.90
2023-03-10T21:49:57.257Z,52.79
2023-03-10T21:53:19.222Z,52.79
2023-03-10T21:56:41.569Z,52.67
2023-03-10T22:00:04.229Z,52.63
2023-03-10T22:03:29.486Z,52.70
2023-03-10T22:06:53.601Z,52.51
2023-03-10T22:10:16.385Z,52.49
2023-03-10T22:13:39.194Z,52.46
2023-03-10T22:17:00.962Z,52.40
2023-03-10T22:20:25.310Z,52.46
2023-03-10T22:23:47.024Z,52.39
2023-03-10T22:27:09.310Z,52.41
2023-03-10T22:30:31.884Z,52.41
2023-03-10T22:33:53.568Z,52.26
2023-03-10T22:37:15.279Z,52.27
2023-03-10T22:40:36.972Z,52.43
2023-03-10T22:43:58.855Z,52.29
2023-03-10T22:47:20.790Z,52.37
2023-03-10T22:50:46.787Z,52.40
2023-03-10T22:54:08.594Z,52.34
2023-03-10T22:57:30.302Z,52.23
2023-03-10T23:00:51.948Z,52.27
2023-03-10T23:04:14.017Z,52.36
2023-03-10T23:07:35.839Z,52.41
2023-03-10T23:10:57.558Z,52.53
2023-03-10T23:14:19.317Z,52.42
2023-03-10T23:17:41.089Z,52.49
2023-03-10T23:21:03.761Z,52.49
2023-03-10T23:24:25.655Z,52.53
2023-03-10T23:27:47.753Z,52.47
2023-03-10T23:31:15.442Z,52.47
2023-03-10T23:34:37.869Z,52.39
2023-03-10T23:38:01.011Z,52.45
2023-03-10T23:41:22.941Z,52.50
2023-03-10T23:44:45.158Z,52.54
2023-03-10T23:48:10.092Z,52.62
2023-03-10T23:51:31.815Z,52.63
2023-03-10T23:54:53.990Z,52.65
2023-03-10T23:58:17.820Z,52.58
